createdAt,value
2023-03-03T00:00:25.632Z,53.50
2023-03-03T00:02:53.688Z,44.85
2023-03-03T00:05:20.392Z,61.22
2023-03-03T00:07:47.254Z,50.70
2023-03-03T00:10:14.131Z,46.75
2023-03-03T00:12:47.694Z,53.17
2023-03-03T00:15:16.359Z,50.35
2023-03-03T00:17:43.224Z,48.22
2023-03-03T00:20:34.247Z,46.55
2023-03-03T00:23:14.319Z,48.40
2023-03-03T00:25:44.189Z,49.97
2023-03-03T00:28:22.213Z,56.70
2023-03-03T00:30:49.226Z,49.83
2023-03-03T00:33:32.157Z,49.05
2023-03-03T00:36:19.986Z,51.92
2023-03-03T00:38:47.294Z,52.90
2023-03-03T00:41:20.031Z,51.65
2023-03-03T00:43:46.875Z,50.05
2023-03-03T00:46:17.670Z,45.88
2023-03-03T00:48:44.418Z,52.83
2023-03-03T00:51:25.716Z,54.17
2023-03-03T00:53:52.520Z,50.88
2023-03-03T00:56:20.302Z,48.55
2023-03-03T00:58:47.058Z,49.00
2023-03-03T01:01:14.116Z,55.97
2023-03-03T01:03:41.343Z,55.20
2023-03-03T01:06:08.231Z,42.35
2023-03-03T01:08:36.452Z,48.92
2023-03-03T01:11:07.614Z,51.00
2023-03-03T01:13:38.098Z,53.05
2023-03-03T01:16:06.120Z,50.15
2023-03-03T01:18:33.392Z,53.65
2023-03-03T01:21:00.129Z,52.30
2023-03-03T01:23:26.880Z,52.58
2023-03-03T01:25:54.955Z,52.20
2023-03-03T01:28:22.576Z,53.90
2023-03-03T01:30:49.280Z,50.78
2023-03-03T01:33:16.039Z,57.88
2023-03-03T01:35:44.727Z,45.47
2023-03-03T01:38:11.467Z,58.10
2023-03-03T01:40:38.450Z,49.17
2023-03-03T01:43:07.026Z,56.85
2023-03-03T01:46:04.100Z,48.33
2023-03-03T01:48:34.380Z,49.88
2023-03-03T01:51:03.307Z,61.50
2023-03-03T01:53:36.903Z,51.47
2023-03-03T01:56:07.312Z,52.65
2023-03-03T01:58:37.400Z,51.08
2023-03-03T02:01:12.092Z,49.97
2023-03-03T02:03:39.260Z,49.65
2023-03-03T02:06:09.420Z,54.95
2023-03-03T02:08:42.605Z,49.47
2023-03-03T02:11:10.983Z,48.37
2023-03-03T02:13:39.063Z,48.45
2023-03-03T02:16:06.774Z,48.25
2023-03-03T02:18:33.816Z,53.40
2023-03-03T02:21:07.039Z,56.17
2023-03-03T02:23:38.158Z,55.77
2023-03-03T02:26:10.610Z,52.63
2023-03-03T02:28:38.842Z,54.05
2023-03-03T02:31:08.568Z,55.33
2023-03-03T02:33:35.377Z,52.25
2023-03-03T02:36:02.201Z,56.30
2023-03-03T02:38:34.992Z,47.20
2023-03-03T02:41:09.179Z,56.78
2023-03-03T02:43:45.981Z,54.42
2023-03-03T02:46:12.733Z,46.08
2023-03-03T02:48:42.201Z,51.15
2023-03-03T02:51:11.762Z,49.03
2023-03-03T02:53:38.616Z,54.25
2023-03-03T02:56:06.425Z,58.17
2023-03-03T02:58:33.218Z,40.95
2023-03-03T03:01:01.521Z,41.33
2023-03-03T03:03:28.375Z,52.97
2023-03-03T03:05:55.156Z,46.50
2023-03-03T03:08:21.930Z,49.00
2023-03-03T03:10:48.764Z,49.85
2023-03-03T03:13:15.541Z,56.55
2023-03-03T03:15:42.296Z,52.10
2023-03-03T03:18:10.384Z,43.75
2023-03-03T03:20:37.679Z,52.45
2023-03-03T03:23:04.378Z,54.45
2023-03-03T03:25:31.122Z,49.92
2023-03-03T03:27:57.836Z,56.53
2023-03-03T03:30:24.624Z,55.10
2023-03-03T03:32:51.483Z,46.30
2023-03-03T03:35:19.741Z,50.78
2023-03-03T03:37:46.466Z,47.63
2023-03-03T03:40:13.405Z,48.25
2023-03-03T03:42:40.119Z,61.88
2023-03-03T03:45:08.100Z,59.25
2023-03-03T03:47:34.818Z,50.95
2023-03-03T03:50:01.565Z,63.85
2023-03-03T03:52:29.774Z,51.38
2023-03-03T03:54:56.508Z,48.35
2023-03-03T03:57:25.620Z,57.00
2023-03-03T03:59:53.279Z,53.35
2023-03-03T04:02:20.042Z,59.70
2023-03-03T04:04:46.869Z,50.88
2023-03-03T04:07:13.858Z,55.10
2023-03-03T04:09:41.994Z,55.63
2023-03-03T04:12:08.807Z,44.75
2023-03-03T04:14:35.701Z,52.95
2023-03-03T04:17:02.476Z,53.30
2023-03-03T04:19:29.168Z,57.90
2023-03-03T04:21:55.888Z,44.45
2023-03-03T04:24:22.632Z,46.30
2023-03-03T04:26:50.714Z,52.65
2023-03-03T04:29:17.631Z,49.83
2023-03-03T04:31:44.406Z,49.25
2023-03-03T04:34:11.150Z,47.63
2023-03-03T04:36:37.828Z,45.03
2023-03-03T04:39:04.675Z,57.95
2023-03-03T04:41:31.398Z,58.20
2023-03-03T04:43:59.626Z,45.75
2023-03-03T04:46:26.380Z,54.85
2023-03-03T04:48:53.212Z,46.47
2023-03-03T04:51:20.037Z,60.28
2023-03-03T04:53:46.884Z,64.40
2023-03-03T04:56:13.904Z,47.47
2023-03-03T04:58:40.682Z,53.60
2023-03-03T05:01:12.517Z,50.25
2023-03-03T05:03:39.305Z,50.03
2023-03-03T05:06:06.716Z,55.15
2023-03-03T05:08:33.603Z,58.30
2023-03-03T05:11:00.302Z,62.33
2023-03-03T05:13:27.301Z,54.35
2023-03-03T05:15:55.657Z,55.28
2023-03-03T05:18:24.987Z,48.60
2023-03-03T05:20:52.370Z,49.15
2023-03-03T05:23:19.733Z,54.40
2023-03-03T05:25:47.630Z,57.40
2023-03-03T05:28:14.424Z,53.38
2023-03-03T05:30:41.356Z,58.85
2023-03-03T05:33:08.206Z,53.10
2023-03-03T05:35:36.297Z,63.17
2023-03-03T05:38:05.318Z,46.65
2023-03-03T05:40:32.436Z,49.88
2023-03-03T05:42:59.190Z,56.35
2023-03-03T05:45:26.007Z,59.58
2023-03-03T05:47:52.984Z,48.15
2023-03-03T05:50:22.065Z,73.18
2023-03-03T05:52:50.731Z,56.42
2023-03-03T05:55:18.031Z,57.50
2023-03-03T05:57:44.790Z,57.30
2023-03-03T06:00:12.908Z,51.97
2023-03-03T06:02:39.792Z,54.30
2023-03-03T06:05:07.810Z,59.70
2023-03-03T06:07:34.830Z,53.25
2023-03-03T06:10:03.656Z,57.15
2023-03-03T06:12:30.552Z,64.82
2023-03-03T06:14:57.276Z,49.20
2023-03-03T06:17:24.004Z,44.88
2023-03-03T06:19:50.709Z,60.25
2023-03-03T06:22:17.412Z,49.20
2023-03-03T06:24:44.369Z,56.65
2023-03-03T06:27:12.486Z,54.97
2023-03-03T06:29:39.183Z,52.20
2023-03-03T06:32:06.156Z,48.20
2023-03-03T06:34:32.968Z,54.50
2023-03-03T06:36:59.698Z,51.45
2023-03-03T06:39:26.436Z,57.10
2023-03-03T06:41:53.152Z,49.15
2023-03-03T06:44:21.227Z,56.75
2023-03-03T06:46:47.984Z,55.00
2023-03-03T06:49:14.867Z,53.00
2023-03-03T06:51:41.667Z,48.33
2023-03-03T06:54:12.154Z,54.60
2023-03-03T06:56:39.892Z,52.05
2023-03-03T06:59:12.027Z,54.25
2023-03-03T07:01:40.786Z,55.78
2023-03-03T07:04:16.291Z,57.40
2023-03-03T07:06:43.070Z,55.10
2023-03-03T07:09:17.696Z,54.30
2023-03-03T07:11:46.535Z,53.30
2023-03-03T07:14:16.979Z,50.13
2023-03-03T07:16:45.239Z,60.70
2023-03-03T07:19:19.217Z,48.50
2023-03-03T07:21:45.935Z,49.55
2023-03-03T07:24:24.962Z,55.92
2023-03-03T07:26:51.709Z,54.92
2023-03-03T07:29:24.090Z,56.95
2023-03-03T07:31:53.458Z,62.03
2023-03-03T07:34:22.591Z,47.70
2023-03-03T07:36:49.975Z,59.30
2023-03-03T07:39:33.831Z,47.13
2023-03-03T07:42:12.827Z,51.53
2023-03-03T07:44:39.643Z,52.92
2023-03-03T07:47:19.172Z,55.30
2023-03-03T07:49:47.905Z,50.63
2023-03-03T07:52:25.882Z,54.13
2023-03-03T07:54:53.641Z,57.60
2023-03-03T07:57:25.901Z,54.58
2023-03-03T07:59:54.703Z,59.30
2023-03-03T08:02:43.587Z,55.25
2023-03-03T08:05:30.413Z,54.88
2023-03-03T08:08:11.882Z,52.45
2023-03-03T08:10:44.243Z,50.15
2023-03-03T08:13:17.947Z,60.53
2023-03-03T08:15:46.306Z,61.05
2023-03-03T08:18:23.484Z,54.38
2023-03-03T08:20:55.176Z,53.75
2023-03-03T08:23:22.436Z,52.28
2023-03-03T08:25:50.826Z,56.88
2023-03-03T08:28:18.320Z,59.95
2023-03-03T08:30:45.448Z,58.67
2023-03-03T08:33:13.290Z,56.42
2023-03-03T08:35:42.117Z,49.03
2023-03-03T08:38:09.296Z,53.67
2023-03-03T08:40:36.451Z,54.80
2023-03-03T08:43:03.292Z,44.42
2023-03-03T08:45:30.444Z,43.33
2023-03-03T08:47:57.521Z,55.78
2023-03-03T08:50:24.313Z,53.33
2023-03-03T08:52:52.392Z,61.05
2023-03-03T08:55:19.281Z,55.95
2023-03-03T08:57:46.237Z,50.42
2023-03-03T09:00:15.774Z,54.95
2023-03-03T09:02:42.980Z,48.40
2023-03-03T09:05:10.670Z,47.80
2023-03-03T09:07:38.048Z,57.92
2023-03-03T09:10:07.645Z,58.33
2023-03-03T09:12:36.569Z,48.00
2023-03-03T09:15:18.293Z,55.47
2023-03-03T09:17:45.725Z,51.45
2023-03-03T09:20:33.129Z,54.13
2023-03-03T09:23:12.479Z,45.88
2023-03-03T09:25:42.344Z,44.40
2023-03-03T09:28:23.734Z,42.13
2023-03-03T09:30:52.046Z,48.45
2023-03-03T09:33:27.967Z,54.20
2023-03-03T09:36:01.064Z,51.83
2023-03-03T09:38:30.245Z,50.53
2023-03-03T09:41:30.689Z,54.70
2023-03-03T09:44:14.836Z,51.92
2023-03-03T09:46:49.069Z,49.17
2023-03-03T09:49:28.382Z,58.92
2023-03-03T09:52:18.746Z,55.35
2023-03-03T09:55:04.446Z,41.40
2023-03-03T09:57:46.716Z,48.72
2023-03-03T10:00:29.442Z,50.88
2023-03-03T10:03:13.556Z,52.40
2023-03-03T10:05:50.151Z,48.22
2023-03-03T10:08:42.275Z,43.65
2023-03-03T10:11:18.212Z,49.38
2023-03-03T10:14:12.570Z,47.72
2023-03-03T10:16:49.940Z,44.72
2023-03-03T10:19:36.366Z,52.83
2023-03-03T10:22:19.576Z,46.88
2023-03-03T10:25:00.606Z,45.25
2023-03-03T10:27:41.861Z,41.42
2023-03-03T10:30:37.116Z,57.75
2023-03-03T10:33:11.939Z,57.65
2023-03-03T10:36:06.945Z,52.72
2023-03-03T10:45:43.806Z,36.92
2023-03-03T10:48:38.704Z,43.95
2023-03-03T10:51:15.527Z,51.25
2023-03-03T10:53:52.105Z,47.05
2023-03-03T10:56:50.468Z,49.67
2023-03-03T10:59:41.309Z,41.00
2023-03-03T11:02:18.190Z,41.30
2023-03-03T11:05:11.844Z,44.72
2023-03-03T11:07:44.174Z,40.10
2023-03-03T11:10:24.510Z,45.05
2023-03-03T11:12:58.658Z,53.70
2023-03-03T11:15:35.854Z,50.55
2023-03-03T11:18:25.612Z,50.97
2023-03-03T11:21:01.143Z,49.90
2023-03-03T11:23:47.532Z,50.75
2023-03-03T11:26:22.786Z,49.60
2023-03-03T11:29:04.894Z,47.28
2023-03-03T11:31:38.820Z,49.42
2023-03-03T11:34:19.135Z,49.13
2023-03-03T11:36:50.335Z,46.97
2023-03-03T11:39:20.361Z,51.55
2023-03-03T11:41:56.872Z,44.20
2023-03-03T11:44:29.607Z,56.13
2023-03-03T11:47:01.985Z,41.40
2023-03-03T11:49:37.588Z,47.50
2023-03-03T11:52:18.353Z,50.72
2023-03-03T11:54:51.854Z,52.38
2023-03-03T11:57:23.554Z,48.33
2023-03-03T12:00:23.498Z,46.58
2023-03-03T12:03:13.860Z,55.92
2023-03-03T12:05:54.907Z,44.78
2023-03-03T12:08:46.410Z,46.38
2023-03-03T12:11:17.964Z,50.15
2023-03-03T12:13:53.755Z,51.55
2023-03-03T12:16:34.296Z,41.20
2023-03-03T12:19:15.197Z,54.25
2023-03-03T12:21:57.301Z,46.50
2023-03-03T12:24:36.475Z,44.33
2023-03-03T12:27:17.387Z,45.67
2023-03-03T12:29:52.853Z,46.60
2023-03-03T12:32:32.926Z,51.08
2023-03-03T12:35:06.370Z,48.80
2023-03-03T12:37:47.962Z,52.53
2023-03-03T12:40:19.273Z,54.83
2023-03-03T12:43:06.368Z,54.47
2023-03-03T12:45:41.900Z,46.08
2023-03-03T12:48:13.983Z,46.53
2023-03-03T12:50:52.656Z,49.85
2023-03-03T12:53:31.681Z,49.00
2023-03-03T12:56:04.157Z,45.50
2023-03-03T12:58:41.419Z,39.72
2023-03-03T13:01:22.624Z,44.75
2023-03-03T13:03:56.481Z,49.17
2023-03-03T13:06:28.577Z,46.75
2023-03-03T13:09:06.411Z,41.58
2023-03-03T13:11:53.949Z,48.80
2023-03-03T13:14:31.935Z,44.17
2023-03-03T13:17:08.920Z,46.92
2023-03-03T13:19:41.623Z,47.72
2023-03-03T13:22:12.600Z,49.22
2023-03-03T13:24:54.066Z,49.25
2023-03-03T13:27:23.063Z,44.67
2023-03-03T13:29:59.042Z,46.58
2023-03-03T13:32:35.056Z,48.20
2023-03-03T13:35:08.904Z,45.22
2023-03-03T13:37:42.084Z,52.88
2023-03-03T13:40:17.519Z,50.30
2023-03-03T13:42:47.521Z,55.50
2023-03-03T13:45:19.642Z,51.33
2023-03-03T13:47:53.178Z,56.05
2023-03-03T13:50:24.862Z,62.95
2023-03-03T13:53:04.798Z,50.22
2023-03-03T13:55:36.083Z,53.25
2023-03-03T13:58:09.941Z,49.53
2023-03-03T14:00:52.076Z,44.08
2023-03-03T14:03:34.216Z,53.53
2023-03-03T14:06:03.301Z,45.90
2023-03-03T14:09:06.298Z,39.08
2023-03-03T14:11:44.371Z,51.10
2023-03-03T14:14:25.251Z,57.88
2023-03-03T14:16:54.997Z,48.92
2023-03-03T14:19:25.917Z,50.65
2023-03-03T14:22:05.462Z,47.08
2023-03-03T14:24:33.921Z,53.28
2023-03-03T14:27:23.192Z,55.15
2023-03-03T14:29:50.063Z,52.75
2023-03-03T14:32:39.397Z,46.92
2023-03-03T14:35:18.986Z,47.15
2023-03-03T14:37:47.188Z,45.22
2023-03-03T14:40:18.920Z,49.38
2023-03-03T14:42:55.307Z,51.30
2023-03-03T14:45:34.749Z,54.13
2023-03-03T14:48:10.928Z,45.15
2023-03-03T14:50:40.105Z,48.25
2023-03-03T14:53:20.382Z,55.25
2023-03-03T14:55:49.467Z,48.95
2023-03-03T14:58:29.661Z,46.00
2023-03-03T15:01:29.863Z,46.95
2023-03-03T15:04:01.701Z,45.65
2023-03-03T15:06:35.181Z,44.63
2023-03-03T15:09:25.070Z,40.28
2023-03-03T15:11:52.879Z,38.58
2023-03-03T15:14:29.858Z,35.60
2023-03-03T15:16:58.140Z,36.15
2023-03-03T15:19:41.823Z,39.47
2023-03-03T15:22:17.200Z,38.00
2023-03-03T15:24:54.379Z,36.08
2023-03-03T15:27:27.223Z,37.28
2023-03-03T15:30:04.277Z,32.58
2023-03-03T15:32:39.509Z,37.65
2023-03-03T15:35:22.270Z,37.33
2023-03-03T15:37:56.681Z,30.08
2023-03-03T15:40:27.363Z,35.88
2023-03-03T15:43:06.726Z,37.35
2023-03-03T15:45:43.294Z,38.97
2023-03-03T15:48:23.893Z,34.58
2023-03-03T15:50:59.315Z,32.22
2023-03-03T15:53:58.123Z,35.22
2023-03-03T15:56:34.382Z,35.55
2023-03-03T15:59:29.764Z,45.47
2023-03-03T16:02:10.310Z,37.03
2023-03-03T16:04:42.743Z,39.70
2023-03-03T16:07:18.427Z,40.83
2023-03-03T16:09:56.038Z,37.60
2023-03-03T16:12:30.215Z,38.53
2023-03-03T16:15:15.174Z,36.28
2023-03-03T16:17:52.043Z,33.90
2023-03-03T16:20:23.576Z,41.08
2023-03-03T16:23:03.370Z,34.00
2023-03-03T16:25:42.284Z,37.00
2023-03-03T16:28:13.665Z,33.90
2023-03-03T16:30:49.137Z,40.70
2023-03-03T16:33:23.705Z,40.80
2023-03-03T16:36:00.986Z,42.55
2023-03-03T16:38:32.547Z,37.53
2023-03-03T16:41:01.466Z,38.15
2023-03-03T16:43:35.275Z,45.08
2023-03-03T16:46:10.489Z,40.03
2023-03-03T16:48:47.162Z,35.25
2023-03-03T16:51:28.921Z,47.03
2023-03-03T16:54:03.047Z,37.13
2023-03-03T16:59:24.808Z,37.60
2023-03-03T17:02:03.320Z,41.92
2023-03-03T17:04:39.845Z,41.35
2023-03-03T17:07:19.481Z,39.50
2023-03-03T17:10:00.270Z,46.53
2023-03-03T17:12:45.991Z,40.78
2023-03-03T17:15:42.801Z,41.92
2023-03-03T17:18:14.422Z,46.53
2023-03-03T17:20:48.084Z,45.30
2023-03-03T17:23:32.728Z,40.47
2023-03-03T17:26:09.925Z,36.15
2023-03-03T17:28:46.119Z,38.08
2023-03-03T17:31:21.349Z,41.65
2023-03-03T17:34:03.526Z,40.65
2023-03-03T17:36:47.795Z,35.55
2023-03-03T17:39:43.400Z,39.40
2023-03-03T17:42:19.585Z,39.55
2023-03-03T17:44:55.322Z,44.55
2023-03-03T17:47:34.960Z,38.90
2023-03-03T17:50:14.114Z,33.80
2023-03-03T17:53:00.443Z,43.88
2023-03-03T17:55:36.568Z,40.72
2023-03-03T17:58:27.830Z,39.17
2023-03-03T18:01:06.899Z,36.58
2023-03-03T18:04:03.811Z,38.03
2023-03-03T18:06:45.594Z,35.35
2023-03-03T18:09:32.994Z,36.60
2023-03-03T18:12:09.068Z,36.42
2023-03-03T18:15:07.705Z,40.63
2023-03-03T18:17:52.046Z,38.33
2023-03-03T18:22:51.848Z,41.80
2023-03-03T18:25:22.243Z,45.53
2023-03-03T18:28:19.464Z,37.88
2023-03-03T18:30:55.684Z,35.85
2023-03-03T18:33:40.663Z,41.15
2023-03-03T18:36:15.299Z,41.33
2023-03-03T18:38:46.568Z,41.35
2023-03-03T18:41:22.385Z,41.70
2023-03-03T18:43:58.243Z,46.72
2023-03-03T18:46:51.944Z,41.85
2023-03-03T18:49:38.866Z,40.53
2023-03-03T18:52:20.128Z,37.58
2023-03-03T18:55:15.714Z,37.13
2023-03-03T18:58:02.316Z,38.17
2023-03-03T19:00:29.762Z,37.30
2023-03-03T19:02:58.567Z,40.25
2023-03-03T19:05:27.636Z,39.83
2023-03-03T19:08:01.922Z,37.75
2023-03-03T19:10:53.261Z,38.75
2023-03-03T19:13:44.087Z,36.47
2023-03-03T19:16:26.695Z,36.00
2023-03-03T19:19:01.977Z,38.78
2023-03-03T19:21:31.774Z,31.65
2023-03-03T19:24:01.185Z,39.10
2023-03-03T19:26:44.723Z,40.22
2023-03-03T19:29:33.483Z,39.17
2023-03-03T19:32:17.851Z,51.65
2023-03-03T19:37:32.527Z,41.33
2023-03-03T19:40:11.525Z,35.38
2023-03-03T19:42:44.051Z,48.22
2023-03-03T19:45:24.909Z,41.05
2023-03-03T19:48:01.190Z,35.80
2023-03-03T19:50:42.227Z,36.30
2023-03-03T19:53:22.383Z,34.83
2023-03-03T19:56:10.408Z,40.08
2023-03-03T19:58:47.878Z,36.88
2023-03-03T20:01:21.691Z,41.30
2023-03-03T20:03:59.850Z,40.00
2023-03-03T20:06:37.622Z,40.13
2023-03-03T20:09:15.418Z,34.20
2023-03-03T20:11:56.892Z,41.35
2023-03-03T20:14:43.559Z,36.20
2023-03-03T20:17:40.108Z,42.45
2023-03-03T20:20:20.218Z,37.95
2023-03-03T20:22:55.162Z,42.90
2023-03-03T20:25:29.562Z,42.13
2023-03-03T20:28:06.119Z,38.70
2023-03-03T20:30:50.340Z,48.03
2023-03-03T20:33:35.154Z,42.17
2023-03-03T20:36:09.547Z,42.20
2023-03-03T20:38:47.155Z,40.90
2023-03-03T20:41:22.879Z,36.97
2023-03-03T20:44:04.088Z,45.05
2023-03-03T20:46:40.325Z,38.75
2023-03-03T20:49:37.203Z,47.08
2023-03-03T20:52:10.581Z,48.03
2023-03-03T20:54:44.248Z,50.53
2023-03-03T20:57:18.895Z,48.40
2023-03-03T20:59:54.326Z,43.83
2023-03-03T21:02:27.185Z,45.78
2023-03-03T21:05:09.042Z,44.97
2023-03-03T21:07:36.772Z,40.60
2023-03-03T21:10:14.428Z,41.03
2023-03-03T21:12:41.262Z,36.28
2023-03-03T21:15:22.904Z,42.20
2023-03-03T21:17:49.863Z,38.70
2023-03-03T21:20:24.763Z,41.10
2023-03-03T21:22:51.830Z,39.00
2023-03-03T21:25:46.471Z,41.65
2023-03-03T21:31:00.865Z,36.78
2023-03-03T21:33:55.831Z,44.85
2023-03-03T21:36:24.033Z,44.85
2023-03-03T21:38:53.051Z,42.20
2023-03-03T21:41:20.356Z,35.85
2023-03-03T21:43:48.642Z,41.47
2023-03-03T21:46:20.004Z,51.90
2023-03-03T21:48:47.074Z,46.30
2023-03-03T21:51:13.957Z,44.97
2023-03-03T21:53:41.570Z,43.90
2023-03-03T21:56:08.377Z,41.55
2023-03-03T21:58:35.104Z,51.22
2023-03-03T22:01:01.825Z,56.25
2023-03-03T22:03:29.888Z,41.90
2023-03-03T22:05:56.654Z,51.08
2023-03-03T22:08:23.671Z,45.00
2023-03-03T22:10:51.081Z,48.10
2023-03-03T22:13:18.062Z,50.88
2023-03-03T22:15:44.765Z,45.65
2023-03-03T22:18:11.630Z,44.63
2023-03-03T22:20:39.704Z,46.90
2023-03-03T22:23:06.394Z,49.38
2023-03-03T22:25:33.170Z,59.47
2023-03-03T22:27:59.894Z,48.35
2023-03-03T22:30:26.591Z,51.88
2023-03-03T22:32:53.286Z,46.30
2023-03-03T22:35:20.097Z,49.67
2023-03-03T22:37:48.191Z,48.67
2023-03-03T22:40:14.920Z,46.85
2023-03-03T22:42:41.636Z,48.30
2023-03-03T22:45:09.343Z,43.60
2023-03-03T22:47:36.079Z,51.88
2023-03-03T22:50:02.996Z,49.75
2023-03-03T22:52:29.799Z,50.47
2023-03-03T22:54:57.809Z,57.08
2023-03-03T22:57:24.685Z,50.85
2023-03-03T22:59:51.607Z,46.42
2023-03-03T23:02:18.368Z,52.92
2023-03-03T23:04:45.170Z,51.67
2023-03-03T23:07:12.028Z,66.63
2023-03-03T23:09:38.762Z,59.80
2023-03-03T23:12:07.345Z,44.90
2023-03-03T23:14:34.049Z,53.08
2023-03-03T23:17:00.908Z,47.60
2023-03-03T23:19:27.592Z,54.03
2023-03-03T23:21:54.329Z,50.20
2023-03-03T23:24:21.171Z,52.85
2023-03-03T23:26:47.839Z,47.88
2023-03-03T23:29:15.874Z,49.92
2023-03-03T23:31:42.619Z,52.55
2023-03-03T23:34:09.357Z,50.55
2023-03-03T23:36:36.080Z,59.95
2023-03-03T23:39:03.109Z,59.58
2023-03-03T23:41:30.089Z,56.63
2023-03-03T23:43:56.952Z,55.17
2023-03-03T23:46:25.138Z,54.70
2023-03-03T23:48:51.910Z,56.58
2023-03-03T23:51:18.617Z,55.03
2023-03-03T23:53:45.407Z,51.25
2023-03-03T23:56:12.098Z,53.75
2023-03-03T23:58:38.846Z,50.40
